createdAt,value
2022-11-08T00:00:44.214Z,8.00
2022-11-08T00:08:43.898Z,13.60
2022-11-08T00:16:28.306Z,8.80
2022-11-08T00:26:21.577Z,9.10
2022-11-08T00:28:49.686Z,9.20
2022-11-08T00:31:17.742Z,13.50
2022-11-08T00:33:47.263Z,8.70
2022-11-08T00:41:12.149Z,13.20
2022-11-08T00:48:37.024Z,11.20
2022-11-08T00:51:08.475Z,13.50
2022-11-08T00:53:38.565Z,12.70
2022-11-08T00:56:08.791Z,9.40
2022-11-08T00:58:36.993Z,8.10
2022-11-08T01:01:10.883Z,9.40
2022-11-08T01:06:10.643Z,8.10
2022-11-08T01:08:39.683Z,9.40
2022-11-08T01:11:10.556Z,7.10
2022-11-08T01:16:08.818Z,9.30
2022-11-08T01:18:37.581Z,7.10
2022-11-08T01:21:06.386Z,12.50
2022-11-08T01:23:36.611Z,9.20
2022-11-08T01:26:06.616Z,9.10
2022-11-08T01:28:34.962Z,7.70
2022-11-08T01:31:06.046Z,9.10
2022-11-08T01:33:34.976Z,9.00
2022-11-08T01:41:01.589Z,7.90
2022-11-08T01:43:41.675Z,6.30
2022-11-08T01:46:41.529Z,8.90
2022-11-08T01:49:43.428Z,7.60
2022-11-08T01:52:22.035Z,10.50
2022-11-08T01:54:58.007Z,8.90
2022-11-08T01:57:36.788Z,10.30
2022-11-08T02:00:08.312Z,6.10
2022-11-08T02:02:38.580Z,7.00
2022-11-08T02:05:24.699Z,7.10
2022-11-08T02:07:55.913Z,8.80
2022-11-08T02:10:27.460Z,7.00
2022-11-08T02:13:04.671Z,8.70
2022-11-08T02:15:33.228Z,7.00
2022-11-08T02:20:30.334Z,8.10
2022-11-08T02:23:10.243Z,8.50
2022-11-08T02:25:39.730Z,8.50
2022-11-08T02:30:37.080Z,7.30
2022-11-08T02:33:16.428Z,11.90
2022-11-08T02:35:47.538Z,9.30
2022-11-08T02:40:50.894Z,7.70
2022-11-08T02:53:14.802Z,5.20
2022-11-08T02:58:13.468Z,8.10
2022-11-08T03:03:10.499Z,6.40
2022-11-08T03:05:38.651Z,7.00
2022-11-08T03:13:06.055Z,8.00
2022-11-08T03:15:35.663Z,8.00
2022-11-08T03:23:03.870Z,7.90
2022-11-08T03:28:03.732Z,7.90
2022-11-08T03:33:01.849Z,7.80
2022-11-08T03:35:30.214Z,7.50
2022-11-08T03:38:00.705Z,7.80
2022-11-08T03:42:58.201Z,11.30
2022-11-08T03:50:24.484Z,7.00
2022-11-08T03:52:54.818Z,12.00
2022-11-08T03:55:28.719Z,7.80
2022-11-08T04:00:27.328Z,7.80
2022-11-08T04:05:25.642Z,7.80
2022-11-08T04:21:09.855Z,6.40
2022-11-08T04:23:38.620Z,7.80
2022-11-08T04:26:08.263Z,8.70
2022-11-08T04:28:37.913Z,7.80
2022-11-08T04:31:08.270Z,6.60
2022-11-08T04:36:10.178Z,7.80
2022-11-08T04:41:08.619Z,5.20
2022-11-08T04:46:06.973Z,7.70
2022-11-08T04:48:35.305Z,10.80
2022-11-08T04:51:06.463Z,7.70
2022-11-08T04:56:05.026Z,9.40
2022-11-08T04:58:36.852Z,11.20
2022-11-08T05:01:07.574Z,5.80
2022-11-08T05:06:08.626Z,7.50
2022-11-08T05:11:07.282Z,7.60
2022-11-08T05:16:06.392Z,7.60
2022-11-08T05:23:52.010Z,7.60
2022-11-08T05:26:21.247Z,7.50
2022-11-08T05:31:18.962Z,9.10
2022-11-08T05:36:16.822Z,7.40
2022-11-08T05:41:17.011Z,7.40
2022-11-08T05:43:47.518Z,7.30
2022-11-08T05:48:45.048Z,7.30
2022-11-08T05:58:50.100Z,5.30
2022-11-08T06:01:20.426Z,5.60
2022-11-08T06:03:49.322Z,7.10
2022-11-08T06:06:40.222Z,7.10
2022-11-08T06:09:17.407Z,7.10
2022-11-08T06:14:47.471Z,7.10
2022-11-08T06:17:17.132Z,7.10
2022-11-08T06:19:45.329Z,6.90
2022-11-08T06:22:29.635Z,7.00
2022-11-08T06:27:38.243Z,7.00
2022-11-08T06:30:14.558Z,7.00
2022-11-08T06:32:42.623Z,5.80
2022-11-08T06:38:01.180Z,7.00
2022-11-08T06:40:32.400Z,9.40
2022-11-08T06:43:01.079Z,10.90
2022-11-08T06:45:30.770Z,7.00
2022-11-08T06:47:59.609Z,7.00
2022-11-08T06:50:29.279Z,5.10
2022-11-08T06:52:58.028Z,7.10
2022-11-08T07:02:58.291Z,7.10
2022-11-08T07:05:28.005Z,4.70
2022-11-08T07:07:58.500Z,5.70
2022-11-08T07:10:29.521Z,7.10
2022-11-08T07:13:05.382Z,7.20
2022-11-08T07:15:34.809Z,7.20
2022-11-08T07:18:05.546Z,4.20
2022-11-08T07:23:02.678Z,7.20
2022-11-08T07:28:01.796Z,7.30
2022-11-08T07:30:30.795Z,7.30
2022-11-08T07:32:59.720Z,8.20
2022-11-08T07:35:29.490Z,7.40
2022-11-08T07:48:12.679Z,7.60
2022-11-08T07:50:43.260Z,7.60
2022-11-08T07:53:11.840Z,7.70
2022-11-08T07:55:40.422Z,6.10
2022-11-08T07:58:09.611Z,10.80
2022-11-08T08:00:39.199Z,10.80
2022-11-08T08:03:09.770Z,11.60
2022-11-08T08:05:40.586Z,7.90
2022-11-08T08:08:13.210Z,5.40
2022-11-08T08:13:14.305Z,8.00
2022-11-08T08:15:43.223Z,11.40
2022-11-08T08:18:13.719Z,8.20
2022-11-08T08:23:15.012Z,8.30
2022-11-08T08:28:14.734Z,8.40
2022-11-08T08:30:47.653Z,8.50
2022-11-08T08:33:34.978Z,8.50
2022-11-08T08:36:27.635Z,9.50
2022-11-08T08:39:36.165Z,8.60
2022-11-08T08:44:33.014Z,12.20
2022-11-08T08:50:16.027Z,8.80
2022-11-08T08:55:28.759Z,9.00
2022-11-08T09:08:47.232Z,8.00
2022-11-08T09:11:49.507Z,12.80
2022-11-08T09:17:29.105Z,11.80
2022-11-08T09:20:01.293Z,11.90
2022-11-08T09:25:02.474Z,9.80
2022-11-08T09:27:45.390Z,12.40
2022-11-08T09:33:00.805Z,12.60
2022-11-08T09:43:43.453Z,12.50
2022-11-08T09:46:13.030Z,15.20
2022-11-08T09:48:51.440Z,15.30
2022-11-08T09:51:24.426Z,12.40
2022-11-08T09:53:57.480Z,12.40
2022-11-08T09:56:36.438Z,12.40
2022-11-08T09:59:21.390Z,12.40
2022-11-08T10:01:50.681Z,12.40
2022-11-08T10:04:24.323Z,10.70
2022-11-08T10:07:04.891Z,12.40
2022-11-08T10:09:45.095Z,10.90
2022-11-08T10:12:24.504Z,12.40
2022-11-08T10:15:11.651Z,12.40
2022-11-08T10:18:02.628Z,12.60
2022-11-08T10:20:42.505Z,12.60
2022-11-08T10:23:22.802Z,12.80
2022-11-08T10:25:57.767Z,12.80
2022-11-08T10:28:33.723Z,12.90
2022-11-08T10:31:03.879Z,13.00
2022-11-08T10:33:36.187Z,13.00
2022-11-08T10:36:10.970Z,11.20
2022-11-08T10:38:48.257Z,13.10
2022-11-08T10:41:24.587Z,13.10
2022-11-08T10:43:58.475Z,13.10
2022-11-08T10:46:38.690Z,13.20
2022-11-08T10:49:23.656Z,13.20
2022-11-08T10:51:54.334Z,13.20
2022-11-08T10:54:46.360Z,13.40
2022-11-08T10:57:16.686Z,13.50
2022-11-08T10:59:46.224Z,13.60
2022-11-08T11:02:27.732Z,11.90
2022-11-08T11:05:21.969Z,13.70
2022-11-08T11:08:02.150Z,13.90
2022-11-08T11:10:32.772Z,14.20
2022-11-08T11:13:06.599Z,18.30
2022-11-08T11:15:37.796Z,14.70
2022-11-08T11:18:30.167Z,14.80
2022-11-08T11:21:02.423Z,14.90
2022-11-08T11:23:35.752Z,15.70
2022-11-08T11:26:04.333Z,15.80
2022-11-08T11:28:32.732Z,14.90
2022-11-08T11:31:10.055Z,15.90
2022-11-08T11:33:46.920Z,17.20
2022-11-08T11:36:20.572Z,16.10
2022-11-08T11:38:54.990Z,16.20
2022-11-08T11:42:05.321Z,16.20
2022-11-08T11:44:52.975Z,16.20
2022-11-08T11:47:30.536Z,16.10
2022-11-08T11:50:13.814Z,17.10
2022-11-08T11:55:25.449Z,14.60
2022-11-08T11:58:07.771Z,16.00
2022-11-08T12:00:42.703Z,15.90
2022-11-08T12:03:42.008Z,15.80
2022-11-08T12:06:38.234Z,15.70
2022-11-08T12:10:11.827Z,15.60
2022-11-08T12:14:30.426Z,15.50
2022-11-08T12:16:29.589Z,15.40
2022-11-08T12:20:02.306Z,15.40
2022-11-08T12:23:09.301Z,15.30
2022-11-08T12:25:42.660Z,15.30
2022-11-08T12:28:46.017Z,15.40
2022-11-08T12:31:26.577Z,15.60
2022-11-08T12:34:14.325Z,15.80
2022-11-08T12:37:55.229Z,15.90
2022-11-08T12:40:51.017Z,16.90
2022-11-08T12:44:26.089Z,16.20
2022-11-08T12:47:08.197Z,16.30
2022-11-08T12:49:51.458Z,16.40
2022-11-08T12:52:37.673Z,16.50
2022-11-08T12:55:17.940Z,15.50
2022-11-08T12:57:48.366Z,16.70
2022-11-08T13:00:20.300Z,16.50
2022-11-08T13:03:03.433Z,16.80
2022-11-08T13:05:34.539Z,15.80
2022-11-08T13:08:08.253Z,16.90
2022-11-08T13:10:47.886Z,17.00
2022-11-08T13:13:39.089Z,17.00
2022-11-08T13:16:27.254Z,17.10
2022-11-08T13:19:01.352Z,17.20
2022-11-08T13:21:47.602Z,17.80
2022-11-08T13:24:45.468Z,17.40
2022-11-08T13:27:39.097Z,17.30
2022-11-08T13:30:41.807Z,17.40
2022-11-08T13:33:29.493Z,16.40
2022-11-08T13:36:11.520Z,17.50
2022-11-08T13:43:44.316Z,17.60
2022-11-08T13:47:10.553Z,17.60
2022-11-08T13:53:02.720Z,17.40
2022-11-08T13:55:49.622Z,17.20
2022-11-08T13:58:32.361Z,17.30
2022-11-08T14:04:22.352Z,16.30
2022-11-08T14:06:58.339Z,16.50
2022-11-08T14:09:35.477Z,17.10
2022-11-08T14:12:12.884Z,17.50
2022-11-08T14:14:51.689Z,17.10
2022-11-08T14:17:53.101Z,16.90
2022-11-08T14:23:54.628Z,17.10
2022-11-08T14:26:31.509Z,17.10
2022-11-08T14:29:04.186Z,15.50
2022-11-08T14:31:36.194Z,16.80
2022-11-08T14:36:48.562Z,15.10
2022-11-08T14:39:32.207Z,16.60
2022-11-08T14:42:06.229Z,16.60
2022-11-08T14:44:36.748Z,16.50
2022-11-08T14:47:14.801Z,16.50
2022-11-08T14:50:03.311Z,16.40
2022-11-08T14:53:01.343Z,16.40
2022-11-08T14:55:45.965Z,16.40
2022-11-08T14:58:31.153Z,16.40
2022-11-08T15:03:41.507Z,16.30
2022-11-08T15:08:56.267Z,16.20
2022-11-08T15:11:29.714Z,16.30
2022-11-08T15:14:01.932Z,16.30
2022-11-08T15:16:40.350Z,16.20
2022-11-08T15:19:30.547Z,16.20
2022-11-08T15:22:00.470Z,16.20
2022-11-08T15:30:04.887Z,16.00
2022-11-08T15:32:45.206Z,15.90
2022-11-08T15:35:28.088Z,15.80
2022-11-08T15:38:10.113Z,14.80
2022-11-08T15:40:49.770Z,15.70
2022-11-08T15:43:40.138Z,15.90
2022-11-08T15:46:28.567Z,15.60
2022-11-08T15:48:58.826Z,15.50
2022-11-08T15:56:34.097Z,15.50
2022-11-08T16:04:01.156Z,19.70
2022-11-08T16:11:30.550Z,15.30
2022-11-08T16:16:47.618Z,15.30
2022-11-08T16:19:24.535Z,15.20
2022-11-08T16:22:01.621Z,15.10
2022-11-08T16:24:35.999Z,15.10
2022-11-08T16:27:07.695Z,15.00
2022-11-08T16:29:38.841Z,14.50
2022-11-08T16:32:11.782Z,18.80
2022-11-08T16:34:48.696Z,14.70
2022-11-08T16:42:30.954Z,14.60
2022-11-08T16:47:42.339Z,16.40
2022-11-08T16:50:18.661Z,14.40
2022-11-08T16:52:49.847Z,13.00
2022-11-08T16:55:23.262Z,14.30
2022-11-08T16:57:53.250Z,15.90
2022-11-08T17:00:22.075Z,14.90
2022-11-08T17:02:52.647Z,14.20
2022-11-08T17:05:30.617Z,12.80
2022-11-08T17:10:31.366Z,15.70
2022-11-08T17:13:01.182Z,14.10
2022-11-08T17:15:57.068Z,14.00
2022-11-08T17:25:52.364Z,13.50
2022-11-08T17:28:29.069Z,14.00
2022-11-08T17:33:32.279Z,18.00
2022-11-08T17:36:05.181Z,14.00
2022-11-08T17:38:37.391Z,13.90
2022-11-08T17:41:11.662Z,13.90
2022-11-08T17:43:41.664Z,13.00
2022-11-08T17:48:50.749Z,13.90
2022-11-08T17:53:49.015Z,12.90
2022-11-08T18:04:16.841Z,13.70
2022-11-08T18:09:48.450Z,13.70
2022-11-08T18:12:16.698Z,12.80
2022-11-08T18:14:53.832Z,13.70
2022-11-08T18:17:49.553Z,13.60
2022-11-08T18:20:18.935Z,11.00
2022-11-08T18:22:53.916Z,13.50
2022-11-08T18:25:31.153Z,13.50
2022-11-08T18:28:12.995Z,13.50
2022-11-08T18:30:47.996Z,13.50
2022-11-08T18:33:23.339Z,13.40
2022-11-08T18:36:06.881Z,17.40
2022-11-08T18:38:44.515Z,13.40
2022-11-08T18:41:17.691Z,13.30
2022-11-08T18:44:10.474Z,13.30
2022-11-08T18:46:43.230Z,13.30
2022-11-08T18:51:44.238Z,13.20
2022-11-08T18:54:21.648Z,11.80
2022-11-08T19:02:03.596Z,13.30
2022-11-08T19:04:44.829Z,14.20
2022-11-08T19:09:48.363Z,13.20
2022-11-08T19:14:55.910Z,11.60
2022-11-08T19:17:38.293Z,13.70
2022-11-08T19:20:08.613Z,13.00
2022-11-08T19:23:00.926Z,13.00
2022-11-08T19:28:23.042Z,12.80
2022-11-08T19:31:37.976Z,12.90
2022-11-08T19:34:22.373Z,12.90
2022-11-08T19:36:56.430Z,12.90
2022-11-08T19:39:32.089Z,12.90
2022-11-08T19:47:20.271Z,11.60
2022-11-08T19:49:56.456Z,12.60
2022-11-08T19:52:25.034Z,11.70
2022-11-08T19:55:01.895Z,10.50
2022-11-08T19:57:38.392Z,12.50
2022-11-08T20:00:29.073Z,12.50
2022-11-08T20:05:52.493Z,13.10
2022-11-08T20:11:03.383Z,11.20
2022-11-08T20:14:04.343Z,12.30
2022-11-08T20:16:43.088Z,12.30
2022-11-08T20:19:18.016Z,12.30
2022-11-08T20:21:47.661Z,16.40
2022-11-08T20:26:59.291Z,11.00
2022-11-08T20:32:03.763Z,11.30
2022-11-08T20:34:32.733Z,12.00
2022-11-08T20:37:04.861Z,15.70
2022-11-08T20:44:39.580Z,11.60
2022-11-08T20:47:10.836Z,10.00
2022-11-08T20:52:08.939Z,15.30
2022-11-08T20:59:40.769Z,10.80
2022-11-08T21:02:11.454Z,12.00
2022-11-08T21:10:13.580Z,10.10
2022-11-08T21:20:12.837Z,11.60
2022-11-08T21:22:42.308Z,11.30
2022-11-08T21:30:08.828Z,11.50
2022-11-08T21:35:05.998Z,11.50
2022-11-08T21:40:04.288Z,9.30
2022-11-08T21:45:09.059Z,12.30
2022-11-08T21:50:06.673Z,14.70
2022-11-08T21:55:04.792Z,10.30
2022-11-08T22:07:33.909Z,13.00
2022-11-08T22:12:35.165Z,11.50
2022-11-08T22:15:05.346Z,12.20
2022-11-08T22:20:04.334Z,11.40
2022-11-08T22:22:32.530Z,10.30
2022-11-08T22:25:11.249Z,12.20
2022-11-08T22:27:40.755Z,11.30
2022-11-08T22:30:15.508Z,11.30
2022-11-08T22:32:51.557Z,14.10
2022-11-08T22:35:25.857Z,11.10
2022-11-08T22:37:54.271Z,8.60
2022-11-08T22:42:52.961Z,11.20
2022-11-08T22:47:49.506Z,10.30
2022-11-08T22:50:18.228Z,15.30
2022-11-08T22:52:46.393Z,11.00
2022-11-08T22:57:44.133Z,10.70
2022-11-08T23:00:15.583Z,10.20
2022-11-08T23:02:43.926Z,10.50
2022-11-08T23:07:40.695Z,14.00
2022-11-08T23:10:09.703Z,14.30
2022-11-08T23:15:43.145Z,9.90
2022-11-08T23:26:51.415Z,12.90
2022-11-08T23:32:15.582Z,14.70
2022-11-08T23:42:40.819Z,12.90
2022-11-08T23:45:10.179Z,9.20
2022-11-08T23:47:39.793Z,9.70
2022-11-08T23:50:08.952Z,10.80
2022-11-08T23:52:37.433Z,10.30
2022-11-08T23:55:06.451Z,10.70
